sensor_id;sensor_type;location;lat;lon;timestamp;temperature;humidity
17489;DHT22;8861;52.644;4.734;2022-12-05T00:00:01;5.20;99.90
17489;DHT22;8861;52.644;4.734;2022-12-05T00:02:28;5.20;99.90
17489;DHT22;8861;52.644;4.734;2022-12-05T00:04:55;5.20;99.90
17489;DHT22;8861;52.644;4.734;2022-12-05T00:07:22;5.20;99.90
17489;DHT22;8861;52.644;4.734;2022-12-05T00:09:50;5.20;99.90
17489;DHT22;8861;52.644;4.734;2022-12-05T00:12:17;5.30;99.90
17489;DHT22;8861;52.644;4.734;2022-12-05T00:14:44;5.30;99.90
17489;DHT22;8861;52.644;4.734;2022-12-05T00:17:10;5.30;99.90
17489;DHT22;8861;52.644;4.734;2022-12-05T00:19:38;5.30;99.90
17489;DHT22;8861;52.644;4.734;2022-12-05T00:22:05;5.30;99.90
17489;DHT22;8861;52.644;4.734;2022-12-05T00:24:32;5.40;99.90
17489;DHT22;8861;52.644;4.734;2022-12-05T00:27:00;5.40;99.90
17489;DHT22;8861;52.644;4.734;2022-12-05T00:29:27;5.30;99.90
17489;DHT22;8861;52.644;4.734;2022-12-05T00:31:54;5.40;99.90
17489;DHT22;8861;52.644;4.734;2022-12-05T00:34:21;5.40;99.90
17489;DHT22;8861;52.644;4.734;2022-12-05T00:36:48;5.40;99.90
17489;DHT22;8861;52.644;4.734;2022-12-05T00:39:15;5.40;99.90
17489;DHT22;8861;52.644;4.734;2022-12-05T00:41:42;5.40;99.90
17489;DHT22;8861;52.644;4.734;2022-12-05T00:44:11;5.40;99.90
17489;DHT22;8861;52.644;4.734;2022-12-05T00:46:38;5.40;99.90
17489;DHT22;8861;52.644;4.734;2022-12-05T00:49:06;5.40;99.90
17489;DHT22;8861;52.644;4.734;2022-12-05T00:51:35;5.40;99.90
17489;DHT22;8861;52.644;4.734;2022-12-05T00:54:04;5.40;99.90
17489;DHT22;8861;52.644;4.734;2022-12-05T00:56:32;5.40;99.90
17489;DHT22;8861;52.644;4.734;2022-12-05T00:59:00;5.40;99.90
17489;DHT22;8861;52.644;4.734;2022-12-05T01:01:30;5.40;99.90
17489;DHT22;8861;52.644;4.734;2022-12-05T01:04:00;5.40;99.90
17489;DHT22;8861;52.644;4.734;2022-12-05T01:06:27;5.40;99.90
17489;DHT22;8861;52.644;4.734;2022-12-05T01:08:55;5.40;99.90
17489;DHT22;8861;52.644;4.734;2022-12-05T01:11:23;5.40;99.90
17489;DHT22;8861;52.644;4.734;2022-12-05T01:13:51;5.40;99.90
17489;DHT22;8861;52.644;4.734;2022-12-05T01:16:20;5.50;99.90
17489;DHT22;8861;52.644;4.734;2022-12-05T01:18:50;5.50;99.90
17489;DHT22;8861;52.644;4.734;2022-12-05T01:21:18;5.50;99.90
17489;DHT22;8861;52.644;4.734;2022-12-05T01:23:45;5.40;99.90
17489;DHT22;8861;52.644;4.734;2022-12-05T01:26:13;5.50;99.90
17489;DHT22;8861;52.644;4.734;2022-12-05T01:28:40;5.50;99.90
17489;DHT22;8861;52.644;4.734;2022-12-05T01:31:09;5.50;99.90
17489;DHT22;8861;52.644;4.734;2022-12-05T01:33:40;5.50;99.90
17489;DHT22;8861;52.644;4.734;2022-12-05T01:36:10;5.50;99.90
17489;DHT22;8861;52.644;4.734;2022-12-05T01:38:38;5.50;99.90
17489;DHT22;8861;52.644;4.734;2022-12-05T01:41:07;5.50;99.90
17489;DHT22;8861;52.644;4.734;2022-12-05T01:43:54;5.50;99.90
17489;DHT22;8861;52.644;4.734;2022-12-05T01:46:21;5.50;99.90
17489;DHT22;8861;52.644;4.734;2022-12-05T01:48:49;5.60;99.90
17489;DHT22;8861;52.644;4.734;2022-12-05T01:51:18;5.60;99.90
17489;DHT22;8861;52.644;4.734;2022-12-05T01:53:45;5.60;99.90
17489;DHT22;8861;52.644;4.734;2022-12-05T01:56:13;5.60;99.90
17489;DHT22;8861;52.644;4.734;2022-12-05T01:58:41;5.60;99.90
17489;DHT22;8861;52.644;4.734;2022-12-05T02:01:10;5.60;99.90
17489;DHT22;8861;52.644;4.734;2022-12-05T02:03:38;5.60;99.90
17489;DHT22;8861;52.644;4.734;2022-12-05T02:06:06;5.60;99.90
17489;DHT22;8861;52.644;4.734;2022-12-05T02:08:35;5.60;99.90
17489;DHT22;8861;52.644;4.734;2022-12-05T02:11:05;5.70;99.90
17489;DHT22;8861;52.644;4.734;2022-12-05T02:13:59;5.70;99.90
17489;DHT22;8861;52.644;4.734;2022-12-05T02:16:39;5.70;99.90
17489;DHT22;8861;52.644;4.734;2022-12-05T02:19:33;5.70;99.90
17489;DHT22;8861;52.644;4.734;2022-12-05T02:22:32;5.70;99.90
17489;DHT22;8861;52.644;4.734;2022-12-05T02:25:33;5.70;99.90
17489;DHT22;8861;52.644;4.734;2022-12-05T02:28:32;5.70;99.90
17489;DHT22;8861;52.644;4.734;2022-12-05T02:31:07;5.70;99.90
17489;DHT22;8861;52.644;4.734;2022-12-05T02:33:40;5.70;99.90
17489;DHT22;8861;52.644;4.734;2022-12-05T02:36:14;5.70;99.90
17489;DHT22;8861;52.644;4.734;2022-12-05T02:38:47;5.70;99.90
17489;DHT22;8861;52.644;4.734;2022-12-05T02:41:21;5.70;99.90
17489;DHT22;8861;52.644;4.734;2022-12-05T02:43:53;5.70;99.90
17489;DHT22;8861;52.644;4.734;2022-12-05T02:46:26;5.70;99.90
17489;DHT22;8861;52.644;4.734;2022-12-05T02:48:57;5.70;99.90
17489;DHT22;8861;52.644;4.734;2022-12-05T02:51:28;5.80;99.90
17489;DHT22;8861;52.644;4.734;2022-12-05T02:53:59;5.80;99.90
17489;DHT22;8861;52.644;4.734;2022-12-05T02:56:29;5.80;99.90
17489;DHT22;8861;52.644;4.734;2022-12-05T02:58:59;5.80;99.90
17489;DHT22;8861;52.644;4.734;2022-12-05T03:01:30;5.80;99.90
17489;DHT22;8861;52.644;4.734;2022-12-05T03:04:00;5.80;99.90
17489;DHT22;8861;52.644;4.734;2022-12-05T03:06:30;5.80;99.90
17489;DHT22;8861;52.644;4.734;2022-12-05T03:09:01;5.80;99.90
17489;DHT22;8861;52.644;4.734;2022-12-05T03:11:30;5.80;99.90
17489;DHT22;8861;52.644;4.734;2022-12-05T03:14:00;5.80;99.90
17489;DHT22;8861;52.644;4.734;2022-12-05T03:16:32;5.80;99.90
17489;DHT22;8861;52.644;4.734;2022-12-05T03:19:03;5.80;99.90
17489;DHT22;8861;52.644;4.734;2022-12-05T03:21:35;5.80;99.90
17489;DHT22;8861;52.644;4.734;2022-12-05T03:24:05;5.80;99.90
17489;DHT22;8861;52.644;4.734;2022-12-05T03:26:38;5.90;99.90
17489;DHT22;8861;52.644;4.734;2022-12-05T03:29:20;5.90;99.90
17489;DHT22;8861;52.644;4.734;2022-12-05T03:31:54;5.90;99.90
17489;DHT22;8861;52.644;4.734;2022-12-05T03:34:32;5.90;99.90
17489;DHT22;8861;52.644;4.734;2022-12-05T03:37:06;5.90;99.90
17489;DHT22;8861;52.644;4.734;2022-12-05T03:39:36;5.90;99.90
17489;DHT22;8861;52.644;4.734;2022-12-05T03:42:11;5.90;99.90
17489;DHT22;8861;52.644;4.734;2022-12-05T03:44:45;5.90;99.90
17489;DHT22;8861;52.644;4.734;2022-12-05T03:47:20;5.90;99.90
17489;DHT22;8861;52.644;4.734;2022-12-05T03:49:51;5.90;99.90
17489;DHT22;8861;52.644;4.734;2022-12-05T03:52:24;5.90;99.90
17489;DHT22;8861;52.644;4.734;2022-12-05T03:54:55;5.90;99.90
17489;DHT22;8861;52.644;4.734;2022-12-05T03:57:26;5.90;99.90
17489;DHT22;8861;52.644;4.734;2022-12-05T03:59:58;5.80;99.90
17489;DHT22;8861;52.644;4.734;2022-12-05T04:02:32;5.80;99.90
17489;DHT22;8861;52.644;4.734;2022-12-05T04:05:06;5.80;99.90
17489;DHT22;8861;52.644;4.734;2022-12-05T04:07:37;5.90;99.90
17489;DHT22;8861;52.644;4.734;2022-12-05T04:10:08;5.90;99.90
17489;DHT22;8861;52.644;4.734;2022-12-05T04:12:39;5.90;99.90
17489;DHT22;8861;52.644;4.734;2022-12-05T04:15:09;5.80;99.90
17489;DHT22;8861;52.644;4.734;2022-12-05T04:17:45;5.80;99.90
17489;DHT22;8861;52.644;4.734;2022-12-05T04:20:15;5.80;99.90
17489;DHT22;8861;52.644;4.734;2022-12-05T04:23:01;5.80;99.90
17489;DHT22;8861;52.644;4.734;2022-12-05T04:25:38;5.70;99.90
17489;DHT22;8861;52.644;4.734;2022-12-05T04:28:17;5.70;99.90
17489;DHT22;8861;52.644;4.734;2022-12-05T04:30:49;5.70;99.90
17489;DHT22;8861;52.644;4.734;2022-12-05T04:33:24;5.70;99.90
17489;DHT22;8861;52.644;4.734;2022-12-05T04:35:55;5.70;99.90
17489;DHT22;8861;52.644;4.734;2022-12-05T04:38:29;5.70;99.90
17489;DHT22;8861;52.644;4.734;2022-12-05T04:41:00;5.70;99.90
17489;DHT22;8861;52.644;4.734;2022-12-05T04:43:30;5.70;99.90
17489;DHT22;8861;52.644;4.734;2022-12-05T04:46:00;5.70;99.90
17489;DHT22;8861;52.644;4.734;2022-12-05T04:48:30;5.70;99.90
17489;DHT22;8861;52.644;4.734;2022-12-05T04:51:00;5.70;99.90
17489;DHT22;8861;52.644;4.734;2022-12-05T04:53:30;5.70;99.90
17489;DHT22;8861;52.644;4.734;2022-12-05T04:55:59;5.80;99.90
17489;DHT22;8861;52.644;4.734;2022-12-05T04:58:29;5.80;99.90
17489;DHT22;8861;52.644;4.734;2022-12-05T05:01:02;5.80;99.90
17489;DHT22;8861;52.644;4.734;2022-12-05T05:03:35;5.80;99.90
17489;DHT22;8861;52.644;4.734;2022-12-05T05:06:04;5.80;99.90
17489;DHT22;8861;52.644;4.734;2022-12-05T05:08:31;5.80;99.90
17489;DHT22;8861;52.644;4.734;2022-12-05T05:11:05;5.90;99.90
17489;DHT22;8861;52.644;4.734;2022-12-05T05:13:33;5.90;99.90
17489;DHT22;8861;52.644;4.734;2022-12-05T05:16:00;5.90;99.90
17489;DHT22;8861;52.644;4.734;2022-12-05T05:18:27;5.90;99.90
17489;DHT22;8861;52.644;4.734;2022-12-05T05:20:55;5.90;99.90
17489;DHT22;8861;52.644;4.734;2022-12-05T05:23:22;5.90;99.90
17489;DHT22;8861;52.644;4.734;2022-12-05T05:25:52;5.90;99.90
17489;DHT22;8861;52.644;4.734;2022-12-05T05:28:19;6.00;99.90
17489;DHT22;8861;52.644;4.734;2022-12-05T05:30:45;6.00;99.90
17489;DHT22;8861;52.644;4.734;2022-12-05T05:33:12;6.00;99.90
17489;DHT22;8861;52.644;4.734;2022-12-05T05:35:39;6.00;99.90
17489;DHT22;8861;52.644;4.734;2022-12-05T05:38:07;6.00;99.90
17489;DHT22;8861;52.644;4.734;2022-12-05T05:40:34;6.00;99.90
17489;DHT22;8861;52.644;4.734;2022-12-05T05:43:02;6.10;99.90
17489;DHT22;8861;52.644;4.734;2022-12-05T05:45:29;6.10;99.90
17489;DHT22;8861;52.644;4.734;2022-12-05T05:47:56;6.10;99.90
17489;DHT22;8861;52.644;4.734;2022-12-05T05:50:23;6.10;99.90
17489;DHT22;8861;52.644;4.734;2022-12-05T05:52:50;6.10;99.90
17489;DHT22;8861;52.644;4.734;2022-12-05T05:55:18;6.10;99.90
17489;DHT22;8861;52.644;4.734;2022-12-05T05:57:45;6.10;99.90
17489;DHT22;8861;52.644;4.734;2022-12-05T06:00:13;6.20;99.90
17489;DHT22;8861;52.644;4.734;2022-12-05T06:02:40;6.10;99.90
17489;DHT22;8861;52.644;4.734;2022-12-05T06:05:07;6.10;99.90
17489;DHT22;8861;52.644;4.734;2022-12-05T06:07:34;6.20;99.90
17489;DHT22;8861;52.644;4.734;2022-12-05T06:10:01;6.10;99.90
17489;DHT22;8861;52.644;4.734;2022-12-05T06:12:30;6.20;99.90
17489;DHT22;8861;52.644;4.734;2022-12-05T06:14:57;6.20;99.90
17489;DHT22;8861;52.644;4.734;2022-12-05T06:17:24;6.20;99.90
17489;DHT22;8861;52.644;4.734;2022-12-05T06:19:50;6.20;99.90
17489;DHT22;8861;52.644;4.734;2022-12-05T06:22:17;6.20;99.90
17489;DHT22;8861;52.644;4.734;2022-12-05T06:24:44;6.20;99.90
17489;DHT22;8861;52.644;4.734;2022-12-05T06:27:11;6.20;99.90
17489;DHT22;8861;52.644;4.734;2022-12-05T06:29:40;6.20;99.90
17489;DHT22;8861;52.644;4.734;2022-12-05T06:32:07;6.20;99.90
17489;DHT22;8861;52.644;4.734;2022-12-05T06:34:33;6.20;99.90
17489;DHT22;8861;52.644;4.734;2022-12-05T06:37:01;6.20;99.90
17489;DHT22;8861;52.644;4.734;2022-12-05T06:39:28;6.20;99.90
17489;DHT22;8861;52.644;4.734;2022-12-05T06:41:55;6.30;99.90
17489;DHT22;8861;52.644;4.734;2022-12-05T06:44:22;6.30;99.90
17489;DHT22;8861;52.644;4.734;2022-12-05T06:46:53;6.30;99.90
17489;DHT22;8861;52.644;4.734;2022-12-05T06:49:20;6.30;99.90
17489;DHT22;8861;52.644;4.734;2022-12-05T06:51:50;6.30;99.90
17489;DHT22;8861;52.644;4.734;2022-12-05T06:54:17;6.30;99.90
17489;DHT22;8861;52.644;4.734;2022-12-05T06:56:44;6.30;99.90
17489;DHT22;8861;52.644;4.734;2022-12-05T06:59:11;6.30;99.90
17489;DHT22;8861;52.644;4.734;2022-12-05T07:01:38;6.30;99.90
17489;DHT22;8861;52.644;4.734;2022-12-05T07:04:09;6.30;99.90
17489;DHT22;8861;52.644;4.734;2022-12-05T07:06:37;6.30;99.90
17489;DHT22;8861;52.644;4.734;2022-12-05T07:09:05;6.30;99.90
17489;DHT22;8861;52.644;4.734;2022-12-05T07:11:32;6.30;99.90
17489;DHT22;8861;52.644;4.734;2022-12-05T07:14:00;6.30;99.90
17489;DHT22;8861;52.644;4.734;2022-12-05T07:16:27;6.40;99.90
17489;DHT22;8861;52.644;4.734;2022-12-05T07:18:54;6.40;99.90
17489;DHT22;8861;52.644;4.734;2022-12-05T07:21:23;6.40;99.90
17489;DHT22;8861;52.644;4.734;2022-12-05T07:23:50;6.40;99.90
17489;DHT22;8861;52.644;4.734;2022-12-05T07:26:19;6.40;99.90
17489;DHT22;8861;52.644;4.734;2022-12-05T07:28:46;6.40;99.90
17489;DHT22;8861;52.644;4.734;2022-12-05T07:31:15;6.40;99.90
17489;DHT22;8861;52.644;4.734;2022-12-05T07:33:42;6.40;99.90
17489;DHT22;8861;52.644;4.734;2022-12-05T07:36:11;6.40;99.90
17489;DHT22;8861;52.644;4.734;2022-12-05T07:38:40;6.40;99.90
17489;DHT22;8861;52.644;4.734;2022-12-05T07:41:09;6.40;99.90
17489;DHT22;8861;52.644;4.734;2022-12-05T07:43:36;6.40;99.90
17489;DHT22;8861;52.644;4.734;2022-12-05T07:46:03;6.40;99.90
17489;DHT22;8861;52.644;4.734;2022-12-05T07:48:32;6.40;99.90
17489;DHT22;8861;52.644;4.734;2022-12-05T07:50:59;6.40;99.90
17489;DHT22;8861;52.644;4.734;2022-12-05T07:53:27;6.40;99.90
17489;DHT22;8861;52.644;4.734;2022-12-05T07:55:57;6.40;99.90
17489;DHT22;8861;52.644;4.734;2022-12-05T07:58:24;6.40;99.90
17489;DHT22;8861;52.644;4.734;2022-12-05T08:00:51;6.40;99.90
17489;DHT22;8861;52.644;4.734;2022-12-05T08:03:18;6.40;99.90
17489;DHT22;8861;52.644;4.734;2022-12-05T08:05:45;6.50;99.90
17489;DHT22;8861;52.644;4.734;2022-12-05T08:08:12;6.50;99.90
17489;DHT22;8861;52.644;4.734;2022-12-05T08:10:39;6.50;99.90
17489;DHT22;8861;52.644;4.734;2022-12-05T08:13:07;6.50;99.90
17489;DHT22;8861;52.644;4.734;2022-12-05T08:15:34;6.60;99.90
17489;DHT22;8861;52.644;4.734;2022-12-05T08:18:02;6.60;99.90
17489;DHT22;8861;52.644;4.734;2022-12-05T08:20:29;6.60;99.90
17489;DHT22;8861;52.644;4.734;2022-12-05T08:22:56;6.60;99.90
17489;DHT22;8861;52.644;4.734;2022-12-05T08:25:23;6.60;99.90
17489;DHT22;8861;52.644;4.734;2022-12-05T08:27:50;6.60;99.90
17489;DHT22;8861;52.644;4.734;2022-12-05T08:30:18;6.70;99.90
17489;DHT22;8861;52.644;4.734;2022-12-05T08:32:45;6.70;99.90
17489;DHT22;8861;52.644;4.734;2022-12-05T08:35:12;6.70;99.90
17489;DHT22;8861;52.644;4.734;2022-12-05T08:37:39;6.80;99.90
17489;DHT22;8861;52.644;4.734;2022-12-05T08:40:07;6.70;99.90
17489;DHT22;8861;52.644;4.734;2022-12-05T08:42:34;6.70;99.90
17489;DHT22;8861;52.644;4.734;2022-12-05T08:45:01;6.70;99.90
17489;DHT22;8861;52.644;4.734;2022-12-05T08:47:29;6.70;99.90
17489;DHT22;8861;52.644;4.734;2022-12-05T08:49:56;6.70;99.90
17489;DHT22;8861;52.644;4.734;2022-12-05T08:52:23;6.70;99.90
17489;DHT22;8861;52.644;4.734;2022-12-05T08:54:50;6.70;99.90
17489;DHT22;8861;52.644;4.734;2022-12-05T08:57:17;6.70;99.90
17489;DHT22;8861;52.644;4.734;2022-12-05T08:59:44;6.70;99.90
17489;DHT22;8861;52.644;4.734;2022-12-05T09:02:11;6.80;99.90
17489;DHT22;8861;52.644;4.734;2022-12-05T09:04:39;6.80;99.90
17489;DHT22;8861;52.644;4.734;2022-12-05T09:07:06;6.80;99.90
17489;DHT22;8861;52.644;4.734;2022-12-05T09:09:33;6.80;99.90
17489;DHT22;8861;52.644;4.734;2022-12-05T09:12:00;6.90;99.90
17489;DHT22;8861;52.644;4.734;2022-12-05T09:14:27;6.90;99.90
17489;DHT22;8861;52.644;4.734;2022-12-05T09:16:58;6.90;99.90
17489;DHT22;8861;52.644;4.734;2022-12-05T09:19:26;7.00;99.90
17489;DHT22;8861;52.644;4.734;2022-12-05T09:21:55;7.00;99.90
17489;DHT22;8861;52.644;4.734;2022-12-05T09:24:23;7.10;99.90
17489;DHT22;8861;52.644;4.734;2022-12-05T09:26:50;7.10;99.90
17489;DHT22;8861;52.644;4.734;2022-12-05T09:29:17;7.10;99.90
17489;DHT22;8861;52.644;4.734;2022-12-05T09:31:45;7.20;99.90
17489;DHT22;8861;52.644;4.734;2022-12-05T09:34:13;7.30;99.90
17489;DHT22;8861;52.644;4.734;2022-12-05T09:36:42;7.30;99.90
17489;DHT22;8861;52.644;4.734;2022-12-05T09:39:11;7.40;99.90
17489;DHT22;8861;52.644;4.734;2022-12-05T09:47:31;7.50;99.90
17489;DHT22;8861;52.644;4.734;2022-12-05T09:50:12;7.60;99.90
17489;DHT22;8861;52.644;4.734;2022-12-05T09:52:42;7.60;99.90
17489;DHT22;8861;52.644;4.734;2022-12-05T09:55:14;7.70;99.90
17489;DHT22;8861;52.644;4.734;2022-12-05T09:57:46;7.80;99.90
17489;DHT22;8861;52.644;4.734;2022-12-05T10:00:15;7.80;99.90
17489;DHT22;8861;52.644;4.734;2022-12-05T10:02:51;7.80;99.90
17489;DHT22;8861;52.644;4.734;2022-12-05T10:05:24;7.90;99.90
17489;DHT22;8861;52.644;4.734;2022-12-05T10:07:59;7.90;99.90
17489;DHT22;8861;52.644;4.734;2022-12-05T10:10:33;7.90;99.90
17489;DHT22;8861;52.644;4.734;2022-12-05T10:13:14;7.90;99.90
17489;DHT22;8861;52.644;4.734;2022-12-05T10:15:44;8.00;99.90
17489;DHT22;8861;52.644;4.734;2022-12-05T10:18:23;8.00;99.90
17489;DHT22;8861;52.644;4.734;2022-12-05T10:20:56;8.00;99.90
17489;DHT22;8861;52.644;4.734;2022-12-05T10:23:28;8.10;99.90
17489;DHT22;8861;52.644;4.734;2022-12-05T10:25:59;8.10;99.90
17489;DHT22;8861;52.644;4.734;2022-12-05T10:28:32;8.10;99.90
17489;DHT22;8861;52.644;4.734;2022-12-05T10:31:05;8.10;99.90
17489;DHT22;8861;52.644;4.734;2022-12-05T10:33:37;8.00;99.90
17489;DHT22;8861;52.644;4.734;2022-12-05T10:36:11;8.10;99.90
17489;DHT22;8861;52.644;4.734;2022-12-05T10:38:38;8.10;99.90
17489;DHT22;8861;52.644;4.734;2022-12-05T10:41:09;8.10;99.90
17489;DHT22;8861;52.644;4.734;2022-12-05T10:43:40;8.10;99.90
17489;DHT22;8861;52.644;4.734;2022-12-05T10:46:09;8.10;99.90
17489;DHT22;8861;52.644;4.734;2022-12-05T10:48:38;8.10;99.90
17489;DHT22;8861;52.644;4.734;2022-12-05T10:51:06;8.10;99.90
17489;DHT22;8861;52.644;4.734;2022-12-05T10:53:39;8.10;99.90
17489;DHT22;8861;52.644;4.734;2022-12-05T10:56:38;8.20;99.90
17489;DHT22;8861;52.644;4.734;2022-12-05T10:59:06;8.20;99.90
17489;DHT22;8861;52.644;4.734;2022-12-05T11:01:34;8.20;99.90
17489;DHT22;8861;52.644;4.734;2022-12-05T11:04:07;8.30;99.90
17489;DHT22;8861;52.644;4.734;2022-12-05T11:06:35;8.30;99.90
17489;DHT22;8861;52.644;4.734;2022-12-05T11:09:05;8.20;99.90
17489;DHT22;8861;52.644;4.734;2022-12-05T11:11:40;8.20;99.90
17489;DHT22;8861;52.644;4.734;2022-12-05T11:14:21;8.20;99.90
17489;DHT22;8861;52.644;4.734;2022-12-05T11:16:52;8.20;99.90
17489;DHT22;8861;52.644;4.734;2022-12-05T11:19:26;8.20;99.90
17489;DHT22;8861;52.644;4.734;2022-12-05T11:21:54;8.20;99.90
17489;DHT22;8861;52.644;4.734;2022-12-05T11:24:24;8.10;99.90
17489;DHT22;8861;52.644;4.734;2022-12-05T11:26:53;8.10;99.90
17489;DHT22;8861;52.644;4.734;2022-12-05T11:29:28;8.10;99.90
17489;DHT22;8861;52.644;4.734;2022-12-05T11:31:55;8.20;99.90
17489;DHT22;8861;52.644;4.734;2022-12-05T11:34:24;8.20;99.90
17489;DHT22;8861;52.644;4.734;2022-12-05T11:36:56;8.30;99.90
17489;DHT22;8861;52.644;4.734;2022-12-05T11:39:24;8.30;99.90
17489;DHT22;8861;52.644;4.734;2022-12-05T11:42:09;8.40;99.90
17489;DHT22;8861;52.644;4.734;2022-12-05T11:45:11;8.40;99.90
17489;DHT22;8861;52.644;4.734;2022-12-05T11:47:55;8.40;99.90
17489;DHT22;8861;52.644;4.734;2022-12-05T11:50:35;8.40;99.90
17489;DHT22;8861;52.644;4.734;2022-12-05T11:53:27;8.40;99.90
17489;DHT22;8861;52.644;4.734;2022-12-05T11:56:01;8.40;99.90
17489;DHT22;8861;52.644;4.734;2022-12-05T11:58:44;8.40;99.90
17489;DHT22;8861;52.644;4.734;2022-12-05T12:01:22;8.40;99.90
17489;DHT22;8861;52.644;4.734;2022-12-05T12:04:22;8.40;99.90
17489;DHT22;8861;52.644;4.734;2022-12-05T12:07:07;8.40;99.90
17489;DHT22;8861;52.644;4.734;2022-12-05T12:09:44;8.40;99.90
17489;DHT22;8861;52.644;4.734;2022-12-05T12:12:20;8.30;99.90
17489;DHT22;8861;52.644;4.734;2022-12-05T12:14:58;8.30;99.90
17489;DHT22;8861;52.644;4.734;2022-12-05T12:17:33;8.30;99.90
17489;DHT22;8861;52.644;4.734;2022-12-05T12:20:20;8.30;99.90
17489;DHT22;8861;52.644;4.734;2022-12-05T12:23:15;8.20;99.90
17489;DHT22;8861;52.644;4.734;2022-12-05T12:25:57;8.30;99.90
17489;DHT22;8861;52.644;4.734;2022-12-05T12:28:36;8.20;99.90
17489;DHT22;8861;52.644;4.734;2022-12-05T12:31:18;8.20;99.90
17489;DHT22;8861;52.644;4.734;2022-12-05T12:33:54;8.20;99.90
17489;DHT22;8861;52.644;4.734;2022-12-05T12:36:25;8.10;99.90
17489;DHT22;8861;52.644;4.734;2022-12-05T12:39:06;8.10;99.90
17489;DHT22;8861;52.644;4.734;2022-12-05T12:42:00;8.10;99.90
17489;DHT22;8861;52.644;4.734;2022-12-05T12:44:52;8.10;99.90
17489;DHT22;8861;52.644;4.734;2022-12-05T12:47:32;8.10;99.90
17489;DHT22;8861;52.644;4.734;2022-12-05T12:50:13;8.10;99.90
17489;DHT22;8861;52.644;4.734;2022-12-05T12:52:53;8.10;99.90
17489;DHT22;8861;52.644;4.734;2022-12-05T12:55:28;8.10;99.90
17489;DHT22;8861;52.644;4.734;2022-12-05T12:58:06;8.10;99.90
17489;DHT22;8861;52.644;4.734;2022-12-05T13:00:44;8.20;99.90
17489;DHT22;8861;52.644;4.734;2022-12-05T13:03:19;8.30;99.90
17489;DHT22;8861;52.644;4.734;2022-12-05T13:05:50;8.30;99.90
17489;DHT22;8861;52.644;4.734;2022-12-05T13:08:24;8.30;99.90
17489;DHT22;8861;52.644;4.734;2022-12-05T13:10:53;8.30;99.90
17489;DHT22;8861;52.644;4.734;2022-12-05T13:13:22;8.30;99.90
17489;DHT22;8861;52.644;4.734;2022-12-05T13:15:54;8.30;99.90
17489;DHT22;8861;52.644;4.734;2022-12-05T13:18:24;8.40;99.90
17489;DHT22;8861;52.644;4.734;2022-12-05T13:20:53;8.40;99.90
17489;DHT22;8861;52.644;4.734;2022-12-05T13:23:22;8.40;99.90
17489;DHT22;8861;52.644;4.734;2022-12-05T13:25:50;8.40;99.90
17489;DHT22;8861;52.644;4.734;2022-12-05T13:28:26;8.40;99.90
17489;DHT22;8861;52.644;4.734;2022-12-05T13:30:54;8.40;99.90
17489;DHT22;8861;52.644;4.734;2022-12-05T13:33:30;8.40;99.90
17489;DHT22;8861;52.644;4.734;2022-12-05T13:36:05;8.40;99.90
17489;DHT22;8861;52.644;4.734;2022-12-05T13:38:58;8.40;99.90
17489;DHT22;8861;52.644;4.734;2022-12-05T13:41:45;8.40;99.90
17489;DHT22;8861;52.644;4.734;2022-12-05T13:44:33;8.30;99.90
17489;DHT22;8861;52.644;4.734;2022-12-05T13:47:02;8.30;99.90
17489;DHT22;8861;52.644;4.734;2022-12-05T13:49:37;8.30;99.90
17489;DHT22;8861;52.644;4.734;2022-12-05T13:52:13;8.30;99.90
17489;DHT22;8861;52.644;4.734;2022-12-05T13:54:43;8.30;99.90
17489;DHT22;8861;52.644;4.734;2022-12-05T14:00:32;8.30;99.90
17489;DHT22;8861;52.644;4.734;2022-12-05T14:03:04;8.30;99.90
17489;DHT22;8861;52.644;4.734;2022-12-05T14:05:44;8.20;99.90
17489;DHT22;8861;52.644;4.734;2022-12-05T14:08:51;8.20;99.90
17489;DHT22;8861;52.644;4.734;2022-12-05T14:11:19;8.10;99.90
17489;DHT22;8861;52.644;4.734;2022-12-05T14:13:47;8.10;99.90
17489;DHT22;8861;52.644;4.734;2022-12-05T14:22:10;8.10;99.90
17489;DHT22;8861;52.644;4.734;2022-12-05T14:24:44;8.10;99.90
17489;DHT22;8861;52.644;4.734;2022-12-05T14:27:19;8.10;99.90
17489;DHT22;8861;52.644;4.734;2022-12-05T14:29:58;8.00;99.90
17489;DHT22;8861;52.644;4.734;2022-12-05T14:32:30;8.00;99.90
17489;DHT22;8861;52.644;4.734;2022-12-05T14:35:03;8.00;99.90
17489;DHT22;8861;52.644;4.734;2022-12-05T14:37:39;8.00;99.90
17489;DHT22;8861;52.644;4.734;2022-12-05T14:40:18;7.90;99.90
17489;DHT22;8861;52.644;4.734;2022-12-05T14:42:52;7.90;99.90
17489;DHT22;8861;52.644;4.734;2022-12-05T14:45:29;7.90;99.90
17489;DHT22;8861;52.644;4.734;2022-12-05T14:47:58;7.90;99.90
17489;DHT22;8861;52.644;4.734;2022-12-05T14:50:49;7.80;99.90
17489;DHT22;8861;52.644;4.734;2022-12-05T14:53:31;7.80;99.90
17489;DHT22;8861;52.644;4.734;2022-12-05T14:56:08;7.80;99.90
17489;DHT22;8861;52.644;4.734;2022-12-05T14:58:40;7.70;99.90
17489;DHT22;8861;52.644;4.734;2022-12-05T15:01:14;7.60;99.90
17489;DHT22;8861;52.644;4.734;2022-12-05T15:03:47;7.50;99.90
17489;DHT22;8861;52.644;4.734;2022-12-05T15:06:16;7.50;99.90
17489;DHT22;8861;52.644;4.734;2022-12-05T15:08:47;7.40;99.90
17489;DHT22;8861;52.644;4.734;2022-12-05T15:11:17;7.40;99.90
17489;DHT22;8861;52.644;4.734;2022-12-05T15:13:55;7.40;99.90
17489;DHT22;8861;52.644;4.734;2022-12-05T15:16:25;7.40;99.90
17489;DHT22;8861;52.644;4.734;2022-12-05T15:18:57;7.40;99.90
17489;DHT22;8861;52.644;4.734;2022-12-05T15:21:30;7.40;99.90
17489;DHT22;8861;52.644;4.734;2022-12-05T15:24:01;7.30;99.90
17489;DHT22;8861;52.644;4.734;2022-12-05T15:26:38;7.30;99.90
17489;DHT22;8861;52.644;4.734;2022-12-05T15:29:07;7.30;99.90
17489;DHT22;8861;52.644;4.734;2022-12-05T15:31:37;7.30;99.90
17489;DHT22;8861;52.644;4.734;2022-12-05T15:34:11;7.30;99.90
17489;DHT22;8861;52.644;4.734;2022-12-05T15:36:44;7.30;99.90
17489;DHT22;8861;52.644;4.734;2022-12-05T15:39:19;7.30;99.90
17489;DHT22;8861;52.644;4.734;2022-12-05T15:41:50;7.30;99.90
17489;DHT22;8861;52.644;4.734;2022-12-05T15:44:18;7.30;99.90
17489;DHT22;8861;52.644;4.734;2022-12-05T15:46:50;7.30;99.90
17489;DHT22;8861;52.644;4.734;2022-12-05T15:49:21;7.30;99.90
17489;DHT22;8861;52.644;4.734;2022-12-05T15:51:51;7.30;99.90
17489;DHT22;8861;52.644;4.734;2022-12-05T15:54:26;7.30;99.90
17489;DHT22;8861;52.644;4.734;2022-12-05T15:56:58;7.30;99.90
17489;DHT22;8861;52.644;4.734;2022-12-05T15:59:31;7.30;99.90
17489;DHT22;8861;52.644;4.734;2022-12-05T16:02:03;7.30;99.90
17489;DHT22;8861;52.644;4.734;2022-12-05T16:04:42;7.30;99.90
17489;DHT22;8861;52.644;4.734;2022-12-05T16:07:12;7.30;99.90
17489;DHT22;8861;52.644;4.734;2022-12-05T16:09:43;7.30;99.90
17489;DHT22;8861;52.644;4.734;2022-12-05T16:12:23;7.30;99.90
17489;DHT22;8861;52.644;4.734;2022-12-05T16:14:54;7.30;99.90
17489;DHT22;8861;52.644;4.734;2022-12-05T16:17:22;7.20;99.90
17489;DHT22;8861;52.644;4.734;2022-12-05T16:19:49;7.30;99.90
17489;DHT22;8861;52.644;4.734;2022-12-05T16:22:20;7.30;99.90
17489;DHT22;8861;52.644;4.734;2022-12-05T16:24:58;7.30;99.90
17489;DHT22;8861;52.644;4.734;2022-12-05T16:27:27;7.30;99.90
17489;DHT22;8861;52.644;4.734;2022-12-05T16:30:15;7.20;99.90
17489;DHT22;8861;52.644;4.734;2022-12-05T16:32:44;7.30;99.90
17489;DHT22;8861;52.644;4.734;2022-12-05T16:35:29;7.30;99.90
17489;DHT22;8861;52.644;4.734;2022-12-05T16:38:13;7.20;99.90
17489;DHT22;8861;52.644;4.734;2022-12-05T16:40:56;7.20;99.90
17489;DHT22;8861;52.644;4.734;2022-12-05T16:43:40;7.20;99.90
17489;DHT22;8861;52.644;4.734;2022-12-05T16:49:17;7.10;99.90